Time;durP1;ratioP1;P1;durP2;ratioP2;P2;SDS_P1;SDS_P2;PMS_P1;PMS_P2;Temp;Humidity;BMP_temperature;BMP_pressure;BME280_temperature;BME280_humidity;BME280_pressure;Samples;Min_cycle;Max_cycle;Signal;HPM_P1;HPM_P2
2021/12/29 00:01:26;;;;;;;44.30;24.10;;;;;;;-4.06;76.89;99194.66;103705;1313;96504;-65
2021/12/29 00:03:58;;;;;;;41.90;23.40;;;;;;;-4.08;77.08;99202.11;103865;1308;138368;-65
2021/12/29 00:06:30;;;;;;;39.80;21.90;;;;;;;-4.10;76.99;99201.23;103662;1309;112240;-66
2021/12/29 00:09:02;;;;;;;38.50;21.40;;;;;;;-4.10;76.95;99198.02;103788;1310;108964;-65
2021/12/29 00:11:37;;;;;;;38.60;21.70;;;;;;;-4.09;76.98;99186.32;103590;1314;139091;-66
2021/12/29 00:14:12;;;;;;;43.10;22.70;;;;;;;-4.07;76.94;99191.77;104968;1309;94574;-66
2021/12/29 00:16:44;;;;;;;44.80;22.50;;;;;;;-4.05;76.96;99191.10;103636;1312;138513;-65
2021/12/29 00:19:31;;;;;;;42.40;23.30;;;;;;;-4.06;77.03;99209.09;103700;1309;111141;-65
2021/12/29 00:22:03;;;;;;;40.80;22.20;;;;;;;-4.08;77.04;99198.71;103615;1314;138144;-65
2021/12/29 00:24:35;;;;;;;39.30;23.60;;;;;;;-4.10;76.90;99206.85;103658;1309;108794;-66
2021/12/29 00:27:07;;;;;;;39.90;22.10;;;;;;;-4.10;77.11;99199.71;103690;1309;96493;-66
2021/12/29 00:29:39;;;;;;;38.90;22.70;;;;;;;-4.09;77.13;99201.77;103593;1313;138156;-66
2021/12/29 00:32:43;;;;;;;39.70;21.10;;;;;;;-4.07;76.79;99192.45;103711;1310;110810;-66
2021/12/29 00:35:38;;;;;;;42.50;23.60;;;;;;;-4.06;76.68;99208.23;103554;1310;137654;-66
2021/12/29 00:38:28;;;;;;;42.90;24.50;;;;;;;-4.08;76.68;99206.86;103682;1312;108784;-66
2021/12/29 00:41:14;;;;;;;;;;;;;;;-4.11;76.62;99196.15;103553;1312;138165;-66
2021/12/29 00:44:06;;;;;;;43.70;24.10;;;;;;;-4.13;77.00;99209.86;103696;1312;96475;-66
2021/12/29 00:46:54;;;;;;;43.20;23.40;;;;;;;-4.13;77.07;99210.53;104190;1310;138409;-66
2021/12/29 00:49:32;;;;;;;46.60;25.10;;;;;;;-4.13;76.70;99200.18;105028;1313;109393;-66
2021/12/29 00:52:07;;;;;;;43.20;24.70;;;;;;;-4.12;76.85;99196.65;104130;1310;138508;-66
2021/12/29 00:54:41;;;;;;;50.20;26.50;;;;;;;-4.10;76.86;99199.38;103942;1311;94676;-65
2021/12/29 00:57:13;;;;;;;48.60;26.50;;;;;;;-4.09;76.85;99193.45;104424;1309;95287;-67
2021/12/29 00:59:45;;;;;;;46.30;24.90;;;;;;;-4.07;76.80;99207.21;103615;1309;137636;-66
2021/12/29 01:02:17;;;;;;;44.00;25.00;;;;;;;-4.07;76.72;99199.06;103657;1309;108896;-65
2021/12/29 01:04:49;;;;;;;42.00;23.30;;;;;;;-4.07;76.91;99206.70;104225;1307;139149;-66
2021/12/29 01:07:21;;;;;;;42.60;22.80;;;;;;;-4.07;76.89;99201.78;105057;1309;94720;-65
2021/12/29 01:09:53;;;;;;;42.50;23.70;;;;;;;-4.05;76.69;99207.23;103903;1310;138677;-65
2021/12/29 01:12:25;;;;;;;43.30;23.90;;;;;;;-4.03;76.71;99226.94;104829;1309;111060;-65
2021/12/29 01:14:58;;;;;;;45.10;25.00;;;;;;;-4.03;76.71;99213.19;104181;1312;107994;-65
2021/12/29 01:17:31;;;;;;;43.10;25.20;;;;;;;-4.03;76.62;99217.60;103579;1310;137617;-65
2021/12/29 01:20:03;;;;;;;41.10;23.70;;;;;;;-4.03;76.78;99211.84;104679;1310;96280;-65
2021/12/29 01:22:35;;;;;;;43.10;23.80;;;;;;;-4.05;76.49;99210.29;103660;1309;138463;-64
2021/12/29 01:25:10;;;;;;;38.50;22.30;;;;;;;-4.06;76.83;99217.23;104157;1312;111103;-65
2021/12/29 01:27:42;;;;;;;35.90;20.90;;;;;;;-4.05;76.90;99215.04;104927;1311;139725;-65
2021/12/29 01:30:14;;;;;;;38.80;21.60;;;;;;;-4.05;76.87;99217.75;105011;1311;106451;-66
2021/12/29 01:32:46;;;;;;;44.20;22.70;;;;;;;-4.04;76.65;99210.80;104998;1309;94400;-66
2021/12/29 01:35:18;;;;;;;41.30;23.40;;;;;;;-4.03;76.64;99212.00;103798;1310;137429;-65
2021/12/29 01:37:50;;;;;;;40.70;22.20;;;;;;;-4.03;76.67;99211.33;103709;1309;109515;-65
2021/12/29 01:40:22;;;;;;;38.90;21.40;;;;;;;-4.04;76.76;99204.52;103538;1312;138206;-65
2021/12/29 01:42:54;;;;;;;40.70;22.70;;;;;;;-4.03;76.63;99216.75;103979;1309;107923;-65
2021/12/29 01:45:26;;;;;;;34.10;20.70;;;;;;;-4.03;76.84;99214.04;105041;1309;96468;-65
2021/12/29 01:47:59;;;;;;;35.70;21.40;;;;;;;-4.01;77.07;99216.59;104959;1309;137795;-65
2021/12/29 01:50:31;;;;;;;37.50;20.80;;;;;;;-3.99;76.78;99214.74;105082;1307;110956;-65
2021/12/29 01:53:08;;;;;;;38.70;22.00;;;;;;;-3.98;76.72;99207.63;103858;1312;137971;-66
2021/12/29 01:55:41;;;;;;;40.20;23.10;;;;;;;-3.99;76.93;99206.94;103808;1310;109138;-65
2021/12/29 01:58:13;;;;;;;37.90;21.20;;;;;;;-4.00;76.56;99209.48;103612;1309;138355;-66
2021/12/29 02:00:44;;;;;;;35.70;21.00;;;;;;;-4.03;76.79;99212.34;105006;1313;94444;-66
2021/12/29 02:03:16;;;;;;;36.10;21.40;;;;;;;-4.05;76.75;99220.48;104582;1311;111102;-65
2021/12/29 02:05:49;;;;;;;34.40;20.20;;;;;;;-4.05;77.14;99215.38;104095;1312;138715;-65
2021/12/29 02:08:23;;;;;;;32.90;19.60;;;;;;;-4.03;77.07;99200.96;105008;1310;108059;-66
2021/12/29 02:10:57;;;;;;;35.30;19.90;;;;;;;-4.02;77.10;99202.33;104354;1309;137906;-66
2021/12/29 02:13:29;;;;;;;37.40;21.70;;;;;;;-4.01;76.79;99217.11;103762;1312;96396;-65
2021/12/29 02:16:01;;;;;;;39.60;22.70;;;;;;;-4.02;77.02;99197.57;103651;1309;137657;-66
2021/12/29 02:18:34;;;;;;;37.20;20.90;;;;;;;-4.03;76.85;99192.13;105072;1310;109161;-66
2021/12/29 02:21:06;;;;;;;35.10;21.30;;;;;;;-4.04;76.96;99191.10;104969;1306;107825;-66
2021/12/29 02:23:54;;;;;;;32.30;20.30;;;;;;;-4.06;77.05;99181.76;103884;1309;138297;-66
2021/12/29 02:26:26;;;;;;;36.10;21.30;;;;;;;-4.05;77.11;99178.70;104190;1309;95802;-66
2021/12/29 02:29:00;;;;;;;40.80;22.10;;;;;;;-4.01;77.17;99175.17;103605;1310;138183;-66
2021/12/29 02:31:32;;;;;;;40.90;21.90;;;;;;;-3.99;77.12;99180.96;104752;1312;108953;-66
2021/12/29 02:34:07;;;;;;;41.10;22.50;;;;;;;-3.98;76.83;99185.20;104333;1308;139263;-66
2021/12/29 02:36:43;;;;;;;42.10;23.30;;;;;;;-3.98;77.09;99181.14;103700;1312;96498;-65
2021/12/29 02:39:19;;;;;;;38.70;22.60;;;;;;;-4.00;77.28;99182.31;104983;1311;94917;-66
2021/12/29 02:41:54;;;;;;;37.30;22.20;;;;;;;-4.01;77.27;99183.66;103856;1314;138513;-66
2021/12/29 02:44:29;;;;;;;38.70;22.10;;;;;;;-4.03;77.24;99181.62;103866;1313;108777;-66
2021/12/29 02:47:01;;;;;;;37.40;22.70;;;;;;;-4.04;77.38;99179.56;104915;1311;138770;-66
2021/12/29 02:49:32;;;;;;;37.70;22.10;;;;;;;-4.03;77.31;99180.25;105038;1309;94810;-66
2021/12/29 02:52:05;;;;;;;36.90;21.60;;;;;;;-3.99;77.35;99183.33;104420;1312;138428;-66
2021/12/29 02:54:37;;;;;;;39.90;23.50;;;;;;;-3.97;77.37;99178.95;105066;1307;111231;-65
2021/12/29 02:57:09;;;;;;;39.30;23.30;;;;;;;-3.94;77.28;99185.10;104457;1312;107875;-66
2021/12/29 02:59:41;;;;;;;42.30;24.00;;;;;;;-3.92;77.17;99186.64;103769;1310;138584;-66
2021/12/29 03:02:13;;;;;;;42.90;24.40;;;;;;;-3.92;77.25;99179.35;104446;1315;96460;-66
2021/12/29 03:04:45;;;;;;;35.60;21.50;;;;;;;-3.92;77.27;99176.45;104899;1309;138326;-66
2021/12/29 03:07:17;;;;;;;40.80;22.80;;;;;;;-3.92;77.48;99185.27;104286;1305;110215;-67
2021/12/29 03:09:49;;;;;;;38.00;21.70;;;;;;;-3.91;77.33;99183.94;104389;1310;139585;-65
2021/12/29 03:12:22;;;;;;;36.00;21.30;;;;;;;-3.89;77.20;99182.42;103125;1311;108947;-66
2021/12/29 03:14:58;;;;;;;39.60;23.00;;;;;;;-3.87;77.40;99186.17;103697;1311;94598;-66
2021/12/29 03:17:30;;;;;;;41.60;23.30;;;;;;;-3.86;77.09;99188.05;103289;1309;137267;-66
2021/12/29 03:20:03;;;;;;;43.80;25.10;;;;;;;-3.86;77.03;99187.02;103027;1312;111225;-67
2021/12/29 03:22:37;;;;;;;43.90;24.30;;;;;;;-3.88;77.24;99181.92;102859;1312;137950;-67
2021/12/29 03:25:10;;;;;;;41.90;23.80;;;;;;;-3.88;77.18;99180.90;102811;1311;110808;-66
2021/12/29 03:27:41;;;;;;;38.30;22.20;;;;;;;-3.88;77.31;99180.39;103095;1310;138823;-65
2021/12/29 03:30:14;;;;;;;40.90;22.60;;;;;;;-3.86;77.03;99183.96;103001;1311;96546;-65
2021/12/29 03:32:52;;;;;;;39.80;22.30;;;;;;;-3.86;77.30;99183.45;103976;1314;111124;-66
2021/12/29 03:35:24;;;;;;;42.00;24.20;;;;;;;-3.83;77.32;99190.95;103452;1312;139468;-66
2021/12/29 03:37:56;;;;;;;41.90;23.80;;;;;;;-3.82;77.19;99194.87;103190;1312;107066;-65
2021/12/29 03:40:28;;;;;;;40.30;24.00;;;;;;;-3.82;77.41;99191.30;104125;1311;137622;-65
2021/12/29 03:43:00;;;;;;;41.30;23.30;;;;;;;-3.83;77.22;99190.27;104307;1308;96370;-66
2021/12/29 03:45:31;;;;;;;41.00;23.70;;;;;;;-3.82;77.18;99197.75;104327;1307;109431;-66
2021/12/29 03:48:04;;;;;;;41.60;23.10;;;;;;;-3.82;77.25;99204.55;104246;1309;140013;-66
2021/12/29 03:50:38;;;;;;;37.10;21.80;;;;;;;-3.82;77.56;99200.48;104331;1311;108890;-66
2021/12/29 03:53:12;;;;;;;38.00;22.40;;;;;;;-3.79;77.29;99195.56;104191;1310;138761;-66
2021/12/29 03:55:45;;;;;;;43.10;23.40;;;;;;;-3.77;76.99;99194.24;104297;1311;94810;-66
2021/12/29 03:58:18;;;;;;;42.40;23.20;;;;;;;-3.75;77.21;99193.41;104043;1309;137465;-65
2021/12/29 04:00:53;;;;;;;41.90;24.10;;;;;;;-3.72;77.06;99190.55;103399;1313;108894;-65
2021/12/29 04:03:25;;;;;;;40.80;23.30;;;;;;;-3.72;76.83;99186.30;103855;1311;109009;-65
2021/12/29 04:05:57;;;;;;;39.40;23.10;;;;;;;-3.74;77.15;99189.69;102801;1312;138384;-65
2021/12/29 04:08:29;;;;;;;38.10;22.40;;;;;;;-3.75;76.95;99189.68;103065;1308;96388;-65
2021/12/29 04:11:01;;;;;;;39.40;22.00;;;;;;;-3.76;76.99;99190.35;102945;1305;138740;-66
2021/12/29 04:13:33;;;;;;;39.50;22.50;;;;;;;-3.76;76.92;99191.37;103031;1312;106970;-65
2021/12/29 04:16:06;;;;;;;41.60;23.30;;;;;;;-3.72;77.07;99186.13;102936;1306;137817;-65
2021/12/29 04:18:45;;;;;;;43.10;23.70;;;;;;;-3.71;77.26;99188.51;103011;1311;96596;-65
2021/12/29 04:21:18;;;;;;;43.40;23.50;;;;;;;-3.73;76.79;99186.13;102880;1311;96512;-65
2021/12/29 04:23:50;;;;;;;41.90;23.80;;;;;;;-3.78;77.18;99187.09;102908;1310;138955;-66
2021/12/29 04:26:22;;;;;;;36.80;21.60;;;;;;;-3.80;77.15;99179.08;103036;1310;109821;-65
2021/12/29 04:28:54;;;;;;;40.70;23.30;;;;;;;-3.84;77.29;99192.14;102865;1312;138393;-65
2021/12/29 04:31:28;;;;;;;37.20;21.50;;;;;;;-3.85;77.47;99187.89;103032;1312;96475;-65
2021/12/29 04:34:00;;;;;;;40.10;23.00;;;;;;;-3.84;77.52;99181.95;103008;1312;138426;-65
2021/12/29 04:36:32;;;;;;;48.50;24.60;;;;;;;-3.86;77.56;99182.45;103046;1311;109958;-66
2021/12/29 04:39:06;;;;;;;51.30;25.70;;;;;;;-3.87;77.45;99171.91;102993;1312;108941;-66
2021/12/29 04:41:38;;;;;;;42.80;24.30;;;;;;;-3.89;77.54;99167.14;102903;1311;137469;-65
2021/12/29 04:44:10;;;;;;;43.40;23.70;;;;;;;-3.92;77.65;99172.55;103085;1306;96602;-66
2021/12/29 04:46:46;;;;;;;42.20;22.00;;;;;;;-3.94;77.85;99171.69;102910;1312;138494;-66
2021/12/29 04:49:23;;;;;;;43.00;22.60;;;;;;;-3.93;77.91;99169.83;103682;1315;110909;-66
2021/12/29 04:52:02;;;;;;;41.10;22.30;;;;;;;-3.91;78.04;99164.91;103669;1312;138037;-66
2021/12/29 04:54:35;;;;;;;46.10;24.10;;;;;;;-3.90;78.12;99163.23;103335;1312;109211;-66
2021/12/29 04:57:07;;;;;;;45.10;25.20;;;;;;;-3.92;77.75;99162.36;103517;1313;96105;-66
2021/12/29 04:59:39;;;;;;;48.80;25.20;;;;;;;-3.91;77.85;99164.75;103000;1311;137421;-65
2021/12/29 05:02:11;;;;;;;42.90;23.20;;;;;;;-3.91;77.77;99164.41;103479;1311;109543;-66
2021/12/29 05:04:55;;;;;;;43.50;24.00;;;;;;;-3.88;77.72;99167.48;103697;1308;138463;-65
2021/12/29 05:10:16;;;;;;;40.10;22.40;;;;;;;-3.84;77.98;99170.39;104172;1311;140565;-66
2021/12/29 05:12:48;;;;;;;49.00;24.80;;;;;;;-3.83;77.71;99169.04;104370;1309;94956;-65
2021/12/29 05:15:20;;;;;;;48.50;25.20;;;;;;;-3.83;78.02;99168.70;104261;1311;111430;-65
2021/12/29 05:17:52;;;;;;;46.80;25.40;;;;;;;-3.84;77.80;99172.27;103335;1311;137732;-66
2021/12/29 05:20:24;;;;;;;43.10;24.00;;;;;;;-3.88;77.74;99169.52;102981;1312;108891;-65
2021/12/29 05:22:57;;;;;;;43.90;23.50;;;;;;;-3.91;77.99;99176.80;102922;1307;139477;-65
2021/12/29 05:25:30;;;;;;;38.20;22.10;;;;;;;-3.95;77.88;99176.08;103021;1312;96569;-68
2021/12/29 05:28:03;;;;;;;43.00;22.20;;;;;;;-3.93;78.24;99180.35;102882;1309;143145;-66
2021/12/29 05:30:35;;;;;;;39.50;23.20;;;;;;;-3.92;78.19;99177.64;104242;1311;108929;-66
2021/12/29 05:33:08;;;;;;;43.60;23.90;;;;;;;-3.90;77.97;99180.55;104309;1311;107769;-66
2021/12/29 05:35:40;;;;;;;46.20;24.80;;;;;;;-3.90;78.26;99179.70;103961;1312;137446;-66
2021/12/29 05:38:12;;;;;;;47.10;26.30;;;;;;;-3.90;77.95;99193.45;104355;1312;94637;-66
2021/12/29 05:40:44;;;;;;;50.00;26.00;;;;;;;-3.93;77.86;99187.31;104199;1308;137210;-67
2021/12/29 05:43:16;;;;;;;41.00;22.20;;;;;;;-3.97;78.26;99193.38;104307;1311;107793;-67
2021/12/29 05:45:49;;;;;;;42.50;23.80;;;;;;;-3.97;78.05;99189.29;104070;1311;139480;-67
2021/12/29 05:48:21;;;;;;;43.90;23.80;;;;;;;-3.94;78.15;99193.91;103432;1312;96610;-67
2021/12/29 05:50:53;;;;;;;38.50;21.40;;;;;;;-3.94;78.18;99200.72;103095;1308;96530;-66
2021/12/29 05:53:25;;;;;;;48.80;24.50;;;;;;;-3.96;78.43;99203.06;102930;1306;137525;-67
2021/12/29 05:55:57;;;;;;;43.30;23.60;;;;;;;-3.99;78.60;99201.34;103068;1311;110124;-67
2021/12/29 05:58:28;;;;;;;47.50;25.90;;;;;;;-4.01;78.49;99204.04;102921;1309;137712;-67
2021/12/29 06:01:00;;;;;;;46.40;25.00;;;;;;;-4.02;78.60;99196.56;103043;1311;96476;-66
2021/12/29 06:03:33;;;;;;;48.50;25.60;;;;;;;-4.03;78.65;99198.41;103014;1312;96597;-67
2021/12/29 06:06:05;;;;;;;44.10;23.60;;;;;;;-4.05;78.76;99200.77;102867;1309;138820;-67
2021/12/29 06:08:37;;;;;;;41.30;23.30;;;;;;;-4.08;78.60;99199.40;102891;1312;109070;-67
2021/12/29 06:11:09;;;;;;;43.10;23.50;;;;;;;-4.08;78.72;99203.64;102890;1311;138037;-67
2021/12/29 06:13:42;;;;;;;47.70;25.70;;;;;;;-4.08;78.63;99209.92;102916;1311;96473;-67
2021/12/29 06:16:13;;;;;;;52.80;26.60;;;;;;;-4.06;78.43;99221.83;102832;1311;137801;-68
2021/12/29 06:18:46;;;;;;;54.70;26.00;;;;;;;-4.07;78.57;99215.70;103048;1311;111842;-67
2021/12/29 06:21:18;;;;;;;50.10;26.00;;;;;;;-4.07;78.82;99213.15;103010;1312;108925;-67
2021/12/29 06:23:49;;;;;;;47.60;24.30;;;;;;;-4.09;78.79;99219.77;102952;1311;138293;-66
2021/12/29 06:26:21;;;;;;;45.10;23.90;;;;;;;-4.09;78.86;99227.23;102970;1310;97983;-66
2021/12/29 06:28:54;;;;;;;43.00;24.00;;;;;;;-4.08;78.99;99230.64;102949;1311;138513;-66
2021/12/29 06:31:25;;;;;;;45.80;24.30;;;;;;;-4.07;78.95;99231.82;102995;1314;110024;-66
2021/12/29 06:33:58;;;;;;;53.50;25.60;;;;;;;-4.08;78.75;99234.36;102886;1312;137827;-66
2021/12/29 06:36:30;;;;;;;49.10;26.50;;;;;;;-4.08;78.79;99238.44;103750;1312;108877;-66
2021/12/29 06:39:02;;;;;;;48.90;25.60;;;;;;;-4.09;78.75;99235.04;102932;1311;96464;-66
2021/12/29 06:41:34;;;;;;;50.30;26.50;;;;;;;-4.11;79.26;99229.59;102777;1312;138311;-67
2021/12/29 06:44:06;;;;;;;52.90;26.10;;;;;;;-4.11;79.04;99234.34;103049;1311;108904;-67
2021/12/29 06:46:38;;;;;;;46.40;24.70;;;;;;;-4.12;79.35;99233.31;104122;1309;138373;-66
2021/12/29 06:49:10;;;;;;;43.80;24.60;;;;;;;-4.13;79.34;99236.00;104285;1311;108944;-67
2021/12/29 06:51:42;;;;;;;51.70;26.80;;;;;;;-4.11;79.47;99233.16;103259;1312;96209;-67
2021/12/29 06:54:14;;;;;;;50.40;25.40;;;;;;;-4.10;79.39;99235.03;104155;1307;139240;-67
2021/12/29 06:56:46;;;;;;;50.30;27.50;;;;;;;-4.08;79.41;99239.79;104311;1311;111199;-67
2021/12/29 06:59:18;;;;;;;55.00;28.60;;;;;;;-4.07;79.60;99242.20;104117;1312;139683;-67
2021/12/29 07:01:51;;;;;;;52.40;27.00;;;;;;;-4.09;79.29;99246.08;103072;1311;110020;-66
2021/12/29 07:04:24;;;;;;;54.50;26.50;;;;;;;-4.11;79.59;99246.57;103264;1308;138943;-68
2021/12/29 07:06:56;;;;;;;46.60;25.30;;;;;;;-4.13;79.47;99243.81;104241;1308;96288;-67
2021/12/29 07:09:28;;;;;;;51.00;26.70;;;;;;;-4.13;79.53;99244.30;103965;1311;111167;-67
2021/12/29 07:12:00;;;;;;;50.60;26.60;;;;;;;-4.12;79.62;99240.95;104117;1311;139391;-68
2021/12/29 07:14:32;;;;;;;52.30;26.30;;;;;;;-4.10;79.64;99248.78;104318;1311;108743;-67
2021/12/29 07:17:05;;;;;;;51.30;27.40;;;;;;;-4.08;79.47;99250.83;104104;1309;137693;-67
2021/12/29 07:19:38;;;;;;;55.40;28.40;;;;;;;-4.07;79.69;99252.03;103033;1314;96616;-67
2021/12/29 07:22:10;;;;;;;54.50;27.60;;;;;;;-4.06;79.64;99249.84;103141;1311;137862;-67
2021/12/29 07:24:42;;;;;;;52.70;27.20;;;;;;;-4.05;79.59;99253.92;103933;1307;108933;-67
2021/12/29 07:27:14;;;;;;;57.50;28.30;;;;;;;-4.04;79.54;99255.29;104202;1313;108938;-66
2021/12/29 07:29:46;;;;;;;53.20;27.20;;;;;;;-4.02;79.63;99256.48;104112;1308;138271;-67
2021/12/29 07:32:18;;;;;;;57.00;28.20;;;;;;;-3.99;79.32;99252.61;104327;1309;94754;-67
2021/12/29 07:34:50;;;;;;;56.80;28.30;;;;;;;-3.94;79.13;99254.71;104221;1312;137607;-67
2021/12/29 07:37:22;;;;;;;55.00;28.50;;;;;;;-3.91;79.41;99248.63;104318;1311;109250;-67
2021/12/29 07:39:54;;;;;;;52.40;28.00;;;;;;;-3.90;79.29;99253.39;104194;1311;138667;-67
2021/12/29 07:42:26;;;;;;;57.60;30.30;;;;;;;-3.92;79.50;99249.98;104312;1311;94947;-67
2021/12/29 07:44:58;;;;;;;61.10;29.20;;;;;;;-3.94;79.50;99250.98;104260;1311;94690;-67
2021/12/29 07:47:30;;;;;;;54.20;27.70;;;;;;;-3.96;79.31;99257.05;103372;1311;138061;-66
2021/12/29 07:50:02;;;;;;;61.70;29.50;;;;;;;-3.97;79.25;99252.29;102954;1313;109181;-66
2021/12/29 07:52:54;;;;;;;61.20;30.20;;;;;;;-3.95;79.61;99250.09;102896;1311;139992;-66
2021/12/29 07:55:25;;;;;;;62.10;29.20;;;;;;;-3.96;79.31;99252.81;103006;1312;96934;-66
2021/12/29 07:57:59;;;;;;;67.20;32.30;;;;;;;-3.94;79.20;99253.02;102915;1312;139515;-66
2021/12/29 08:00:31;;;;;;;65.40;31.60;;;;;;;-3.92;79.28;99251.67;102948;1311;110278;-66
2021/12/29 08:03:03;;;;;;;61.80;30.60;;;;;;;-3.94;79.49;99252.00;103083;1312;110444;-66
2021/12/29 08:05:36;;;;;;;68.50;31.90;;;;;;;-3.97;79.52;99255.52;104399;1311;137852;-66
2021/12/29 08:08:09;;;;;;;60.70;31.40;;;;;;;-4.00;79.70;99250.90;105028;1315;94645;-67
2021/12/29 08:10:42;;;;;;;67.90;32.20;;;;;;;-3.99;79.93;99253.80;104667;1310;140431;-70
2021/12/29 08:13:13;;;;;;;61.40;29.90;;;;;;;-4.00;80.22;99263.30;103681;1315;111101;-67
2021/12/29 08:15:46;;;;;;;63.20;31.50;;;;;;;-4.00;80.14;99264.66;103569;1314;108032;-67
2021/12/29 08:18:18;;;;;;;69.40;34.00;;;;;;;-3.99;80.26;99260.77;103502;1310;137853;-67
2021/12/29 08:20:50;;;;;;;75.20;33.70;;;;;;;-3.99;80.42;99260.23;103780;1313;96605;-67
2021/12/29 08:23:22;;;;;;;68.10;34.30;;;;;;;-4.00;80.20;99262.28;103463;1313;137498;-67
2021/12/29 08:25:53;;;;;;;69.80;33.90;;;;;;;-3.99;80.16;99261.61;103600;1315;111288;-68
2021/12/29 08:28:25;;;;;;;70.50;34.00;;;;;;;-3.99;80.23;99265.69;103511;1314;138430;-68
2021/12/29 08:30:57;;;;;;;69.50;32.80;;;;;;;-3.99;80.26;99268.74;103353;1313;109123;-67
2021/12/29 08:33:29;;;;;;;69.50;33.10;;;;;;;-3.97;80.17;99264.67;103554;1309;96484;-68
2021/12/29 08:36:01;;;;;;;63.90;33.30;;;;;;;-3.96;80.44;99259.77;102942;1312;138028;-68
2021/12/29 08:38:33;;;;;;;77.40;33.40;;;;;;;-3.93;80.10;99261.86;102406;1313;110105;-67
2021/12/29 08:41:05;;;;;;;80.10;38.10;;;;;;;-3.91;80.53;99261.02;102343;1312;137811;-67
2021/12/29 08:43:38;;;;;;;76.40;36.90;;;;;;;-3.90;80.22;99249.48;102445;1313;108891;-68
2021/12/29 08:46:10;;;;;;;72.40;35.50;;;;;;;-3.88;80.21;99238.30;102370;1311;138813;-68
2021/12/29 08:48:43;;;;;;;77.40;36.10;;;;;;;-3.83;80.66;99243.60;102480;1311;96588;-67
2021/12/29 08:51:17;;;;;;;75.20;34.70;;;;;;;-3.80;80.21;99265.87;102773;1312;111350;-67
2021/12/29 08:53:50;;;;;;;74.50;35.50;;;;;;;-3.79;80.03;99270.64;102704;1312;138388;-69
2021/12/29 08:56:22;;;;;;;73.00;35.70;;;;;;;-3.75;80.19;99273.41;102955;1311;108721;-67
2021/12/29 08:58:55;;;;;;;72.20;33.70;;;;;;;-3.70;80.04;99277.70;102705;1311;139258;-67
2021/12/29 09:01:28;;;;;;;76.10;36.10;;;;;;;-3.65;79.97;99272.13;102804;1307;96594;-67
2021/12/29 09:04:00;;;;;;;76.00;34.70;;;;;;;-3.59;79.90;99283.06;102508;1311;138854;-68
2021/12/29 09:06:33;;;;;;;77.30;36.60;;;;;;;-3.55;79.86;99279.20;102754;1311;108828;-68
2021/12/29 09:09:06;;;;;;;82.90;38.80;;;;;;;-3.52;79.57;99286.86;102942;1311;108916;-67
2021/12/29 09:11:38;;;;;;;83.90;38.70;;;;;;;-3.51;79.60;99289.60;102659;1314;138465;-68
2021/12/29 09:14:10;;;;;;;82.20;37.00;;;;;;;-3.48;79.48;99285.53;103135;1315;96347;-67
2021/12/29 09:16:43;;;;;;;72.50;35.00;;;;;;;-3.46;79.58;99286.74;103257;1313;138167;-68
2021/12/29 09:19:15;;;;;;;68.80;33.90;;;;;;;-3.43;79.78;99295.42;103624;1313;109278;-68
2021/12/29 09:21:52;;;;;;;70.60;34.10;;;;;;;-3.42;79.43;99297.48;103309;1310;108881;-66
2021/12/29 09:24:24;;;;;;;73.20;35.80;;;;;;;-3.39;79.37;99295.14;103526;1314;138142;-67
2021/12/29 09:26:56;;;;;;;72.90;36.40;;;;;;;-3.36;79.37;99291.77;103787;1315;96529;-67
2021/12/29 09:29:27;;;;;;;78.70;39.20;;;;;;;-3.32;79.34;99288.55;103608;1315;137527;-67
2021/12/29 09:31:59;;;;;;;80.30;39.60;;;;;;;-3.29;79.53;99279.91;103499;1314;107949;-66
2021/12/29 09:34:32;;;;;;;82.90;38.30;;;;;;;-3.26;79.57;99281.80;103541;1315;139451;-67
2021/12/29 09:37:06;;;;;;;71.50;36.90;;;;;;;-3.26;79.20;99280.45;103726;1315;96560;-66
2021/12/29 09:39:38;;;;;;;76.90;37.50;;;;;;;-3.31;79.37;99278.20;103605;1313;96486;-68
2021/12/29 09:42:10;;;;;;;85.30;40.30;;;;;;;-3.34;79.45;99267.14;103186;1314;138760;-66
2021/12/29 09:44:42;;;;;;;83.00;39.00;;;;;;;-3.37;79.41;99263.21;103444;1314;110120;-69
2021/12/29 09:47:14;;;;;;;80.60;39.80;;;;;;;-3.37;79.33;99261.69;102927;1310;138260;-67
2021/12/29 09:49:46;;;;;;;77.60;38.90;;;;;;;-3.35;79.31;99260.66;103171;1313;98545;-66
2021/12/29 09:52:18;;;;;;;82.70;39.50;;;;;;;-3.35;79.67;99270.54;103031;1312;139343;-67
2021/12/29 09:54:51;;;;;;;84.50;40.20;;;;;;;-3.36;79.56;99278.01;103531;1310;111151;-68
2021/12/29 09:57:23;;;;;;;82.10;40.00;;;;;;;-3.38;79.62;99276.98;103076;1315;107635;-69
2021/12/29 09:59:55;;;;;;;80.40;39.20;;;;;;;-3.38;79.59;99277.14;102458;1314;138258;-69
2021/12/29 10:02:27;;;;;;;81.50;37.60;;;;;;;-3.39;79.89;99266.77;102693;1314;98612;-68
2021/12/29 10:05:00;;;;;;;82.30;38.50;;;;;;;-3.40;79.82;99268.13;102801;1315;138834;-69
2021/12/29 10:07:36;;;;;;;74.90;36.80;;;;;;;-3.37;79.56;99268.48;102805;1311;109693;-68
2021/12/29 10:10:19;;;;;;;80.90;39.20;;;;;;;-3.31;79.70;99269.88;102812;1310;138099;-68
2021/12/29 10:12:51;;;;;;;80.90;39.70;;;;;;;-3.23;79.69;99273.50;102817;1315;108274;-69
2021/12/29 10:15:30;;;;;;;82.50;38.90;;;;;;;-3.16;79.63;99277.98;103129;1316;97893;-69
2021/12/29 10:18:11;;;;;;;91.20;40.80;;;;;;;-3.09;79.56;99274.29;103474;1314;137292;-69
2021/12/29 10:20:54;;;;;;;80.10;40.10;;;;;;;-3.07;79.46;99272.08;103535;1314;111144;-68
2021/12/29 10:23:28;;;;;;;84.80;39.50;;;;;;;-3.09;79.46;99269.17;103219;1314;138358;-68
2021/12/29 10:26:08;;;;;;;77.80;37.90;;;;;;;-3.12;79.00;99275.97;103582;1315;108769;-68
2021/12/29 10:28:43;;;;;;;81.20;39.10;;;;;;;-3.12;79.43;99272.56;103343;1314;138448;-69
2021/12/29 10:31:21;;;;;;;82.70;40.00;;;;;;;-3.11;79.21;99284.48;103271;1314;97363;-67
2021/12/29 10:33:56;;;;;;;84.90;41.20;;;;;;;-3.11;79.54;99287.02;103532;1315;110218;-68
2021/12/29 10:36:31;;;;;;;91.80;41.80;;;;;;;-3.10;79.28;99287.54;104316;1315;138035;-68
2021/12/29 10:39:09;;;;;;;93.20;44.10;;;;;;;-3.10;79.53;99275.47;104652;1312;108484;-68
2021/12/29 10:41:50;;;;;;;99.70;42.50;;;;;;;-3.10;79.33;99269.86;104793;1313;139054;-68
2021/12/29 10:44:29;;;;;;;86.70;41.40;;;;;;;-3.04;79.73;99269.23;102736;1314;96461;-69
2021/12/29 10:47:03;;;;;;;88.80;42.60;;;;;;;-3.00;79.23;99265.34;102595;1314;138322;-68
2021/12/29 10:49:36;;;;;;;90.30;41.00;;;;;;;-2.96;79.18;99261.79;102751;1311;108774;-68
2021/12/29 10:52:09;;;;;;;86.80;40.50;;;;;;;-2.93;79.37;99263.50;102539;1311;139366;-68
2021/12/29 10:54:42;;;;;;;87.90;42.90;;;;;;;-2.91;79.19;99257.39;102694;1314;98001;-69
2021/12/29 10:57:15;;;;;;;92.90;44.20;;;;;;;-2.86;79.03;99264.41;102927;1310;96513;-68
2021/12/29 10:59:47;;;;;;;97.90;45.20;;;;;;;-2.85;79.12;99263.91;102915;1315;138035;-68
2021/12/29 11:02:27;;;;;;;86.80;43.00;;;;;;;-2.83;79.21;99266.81;102902;1312;109077;-69
2021/12/29 11:05:02;;;;;;;85.00;41.50;;;;;;;-2.80;79.16;99264.45;102801;1310;138291;-68
2021/12/29 11:07:36;;;;;;;89.80;42.00;;;;;;;-2.78;79.12;99262.41;103211;1315;96600;-68
2021/12/29 11:10:14;;;;;;;88.10;39.40;;;;;;;-2.75;78.85;99262.42;103489;1315;138295;-68
2021/12/29 11:12:50;;;;;;;85.90;41.40;;;;;;;-2.76;78.76;99261.73;104289;1311;110090;-68
2021/12/29 11:15:24;;;;;;;79.10;38.40;;;;;;;-2.77;78.88;99264.63;103624;1310;109068;-69
2021/12/29 11:18:04;;;;;;;86.50;39.70;;;;;;;-2.76;78.89;99265.65;104699;1307;139521;-69
2021/12/29 11:20:38;;;;;;;90.80;42.60;;;;;;;-2.74;78.72;99258.17;103674;1311;96603;-68
2021/12/29 11:23:15;;;;;;;94.10;42.10;;;;;;;-2.70;78.78;99262.10;103439;1313;137321;-69
2021/12/29 11:25:47;;;;;;;93.50;44.00;;;;;;;-2.68;78.98;99263.33;103446;1313;111227;-69
2021/12/29 11:28:26;;;;;;;95.60;42.60;;;;;;;-2.68;78.61;99269.11;103237;1313;139713;-68
2021/12/29 11:31:03;;;;;;;83.20;41.40;;;;;;;-2.71;78.77;99267.02;103354;1311;108063;-68
2021/12/29 11:33:36;;;;;;;91.70;42.80;;;;;;;-2.73;79.05;99266.85;103447;1313;96361;-68
2021/12/29 11:36:08;;;;;;;87.10;41.30;;;;;;;-2.73;78.91;99265.14;103351;1314;138062;-69